sensor_id;sensor_type;location;lat;lon;timestamp;pressure;altitude;pressure_sealevel;temperature;humidity
74921;BME280;63483;47.384;8.860;2023-04-01T00:01:03;93645.66;;;5.85;45.16
74921;BME280;63483;47.384;8.860;2023-04-01T00:03:29;93644.16;;;5.90;45.29
74921;BME280;63483;47.384;8.860;2023-04-01T00:05:56;93645.25;;;5.96;45.25
74921;BME280;63483;47.384;8.860;2023-04-01T00:08:22;93649.94;;;6.00;45.12
74921;BME280;63483;47.384;8.860;2023-04-01T00:10:48;93647.78;;;6.04;45.36
74921;BME280;63483;47.384;8.860;2023-04-01T00:13:13;93651.06;;;5.98;45.20
74921;BME280;63483;47.384;8.860;2023-04-01T00:15:39;93650.06;;;5.84;45.37
74921;BME280;63483;47.384;8.860;2023-04-01T00:18:05;93654.72;;;5.89;45.40
74921;BME280;63483;47.384;8.860;2023-04-01T00:20:32;93644.91;;;5.99;44.81
74921;BME280;63483;47.384;8.860;2023-04-01T00:22:57;93651.03;;;5.83;44.74
74921;BME280;63483;47.384;8.860;2023-04-01T00:25:23;93652.56;;;5.92;44.77
74921;BME280;63483;47.384;8.860;2023-04-01T00:27:49;93658.91;;;5.75;45.06
74921;BME280;63483;47.384;8.860;2023-04-01T00:30:15;93659.19;;;5.57;45.60
74921;BME280;63483;47.384;8.860;2023-04-01T00:32:41;93667.91;;;5.64;45.43
74921;BME280;63483;47.384;8.860;2023-04-01T00:35:07;93672.06;;;5.73;45.49
74921;BME280;63483;47.384;8.860;2023-04-01T00:37:35;93659.09;;;5.73;45.37
74921;BME280;63483;47.384;8.860;2023-04-01T00:40:03;93663.41;;;5.81;45.37
74921;BME280;63483;47.384;8.860;2023-04-01T00:42:29;93662.94;;;5.77;45.02
74921;BME280;63483;47.384;8.860;2023-04-01T00:44:55;93672.66;;;5.83;45.41
74921;BME280;63483;47.384;8.860;2023-04-01T00:47:21;93655.53;;;5.89;44.61
74921;BME280;63483;47.384;8.860;2023-04-01T00:49:50;93656.81;;;5.93;45.24
74921;BME280;63483;47.384;8.860;2023-04-01T00:52:19;93659.47;;;5.85;45.53
74921;BME280;63483;47.384;8.860;2023-04-01T00:54:47;93665.34;;;6.02;44.59
74921;BME280;63483;47.384;8.860;2023-04-01T00:57:20;93664.91;;;5.75;45.15
74921;BME280;63483;47.384;8.860;2023-04-01T00:59:48;93665.13;;;5.89;44.91
74921;BME280;63483;47.384;8.860;2023-04-01T01:02:17;93666.13;;;6.03;44.80
74921;BME280;63483;47.384;8.860;2023-04-01T01:04:43;93670.19;;;6.05;45.05
74921;BME280;63483;47.384;8.860;2023-04-01T01:12:52;93659.34;;;6.02;45.02
74921;BME280;63483;47.384;8.860;2023-04-01T01:15:26;93649.88;;;6.09;45.25
74921;BME280;63483;47.384;8.860;2023-04-01T01:18:04;93663.94;;;5.76;45.74
74921;BME280;63483;47.384;8.860;2023-04-01T01:23:28;93658.22;;;5.81;45.53
74921;BME280;63483;47.384;8.860;2023-04-01T01:26:51;93667.09;;;5.63;45.60
74921;BME280;63483;47.384;8.860;2023-04-01T01:37:38;93652.97;;;5.66;44.97
74921;BME280;63483;47.384;8.860;2023-04-01T01:40:08;93640.19;;;5.56;45.74
74921;BME280;63483;47.384;8.860;2023-04-01T01:42:37;93659.84;;;5.59;45.56
74921;BME280;63483;47.384;8.860;2023-04-01T01:45:04;93648.38;;;5.45;45.66
74921;BME280;63483;47.384;8.860;2023-04-01T01:47:31;93667.66;;;5.51;45.46
74921;BME280;63483;47.384;8.860;2023-04-01T01:49:59;93656.09;;;5.61;45.53
74921;BME280;63483;47.384;8.860;2023-04-01T01:52:27;93652.44;;;5.71;45.47
74921;BME280;63483;47.384;8.860;2023-04-01T01:54:55;93648.00;;;5.79;45.37
74921;BME280;63483;47.384;8.860;2023-04-01T01:57:36;93648.47;;;5.60;45.18
74921;BME280;63483;47.384;8.860;2023-04-01T02:00:08;93631.84;;;5.69;44.96
74921;BME280;63483;47.384;8.860;2023-04-01T02:02:48;93638.69;;;5.62;44.74
74921;BME280;63483;47.384;8.860;2023-04-01T02:05:21;93639.41;;;5.56;44.69
74921;BME280;63483;47.384;8.860;2023-04-01T02:07:54;93633.50;;;5.62;44.45
74921;BME280;63483;47.384;8.860;2023-04-01T02:10:25;93647.34;;;5.77;44.17
74921;BME280;63483;47.384;8.860;2023-04-01T02:12:53;93635.13;;;5.63;44.48
74921;BME280;63483;47.384;8.860;2023-04-01T02:15:24;93635.47;;;5.60;44.39
74921;BME280;63483;47.384;8.860;2023-04-01T02:17:52;93627.59;;;5.68;44.70
74921;BME280;63483;47.384;8.860;2023-04-01T02:20:21;93620.72;;;5.75;44.40
74921;BME280;63483;47.384;8.860;2023-04-01T02:22:50;93620.56;;;5.77;44.16
74921;BME280;63483;47.384;8.860;2023-04-01T02:25:25;93618.84;;;5.69;43.94
74921;BME280;63483;47.384;8.860;2023-04-01T02:27:53;93626.47;;;5.71;44.06
74921;BME280;63483;47.384;8.860;2023-04-01T02:30:20;93621.91;;;5.88;43.50
74921;BME280;63483;47.384;8.860;2023-04-01T02:32:46;93631.06;;;5.83;43.62
74921;BME280;63483;47.384;8.860;2023-04-01T02:35:15;93621.50;;;5.61;43.90
74921;BME280;63483;47.384;8.860;2023-04-01T02:37:42;93633.47;;;5.70;44.06
74921;BME280;63483;47.384;8.860;2023-04-01T02:40:10;93619.75;;;5.76;43.12
74921;BME280;63483;47.384;8.860;2023-04-01T02:42:36;93623.16;;;5.54;43.71
74921;BME280;63483;47.384;8.860;2023-04-01T02:45:03;93622.19;;;5.55;43.51
74921;BME280;63483;47.384;8.860;2023-04-01T02:47:28;93621.25;;;5.71;43.41
74921;BME280;63483;47.384;8.860;2023-04-01T02:49:54;93629.81;;;5.79;43.08
74921;BME280;63483;47.384;8.860;2023-04-01T02:52:24;93623.19;;;5.92;42.63
74921;BME280;63483;47.384;8.860;2023-04-01T02:54:50;93622.47;;;5.98;42.22
74921;BME280;63483;47.384;8.860;2023-04-01T02:57:16;93619.97;;;5.90;42.91
74921;BME280;63483;47.384;8.860;2023-04-01T02:59:41;93618.19;;;6.05;42.09
74921;BME280;63483;47.384;8.860;2023-04-01T03:02:06;93622.25;;;6.08;42.16
74921;BME280;63483;47.384;8.860;2023-04-01T03:04:32;93609.88;;;6.10;42.44
74921;BME280;63483;47.384;8.860;2023-04-01T03:06:57;93612.28;;;6.11;42.35
74921;BME280;63483;47.384;8.860;2023-04-01T03:09:23;93612.19;;;5.90;42.23
74921;BME280;63483;47.384;8.860;2023-04-01T03:11:48;93610.13;;;6.00;41.78
74921;BME280;63483;47.384;8.860;2023-04-01T03:14:13;93611.38;;;6.04;42.03
74921;BME280;63483;47.384;8.860;2023-04-01T03:16:39;93607.72;;;6.13;42.27
74921;BME280;63483;47.384;8.860;2023-04-01T03:19:04;93603.06;;;6.09;41.96
74921;BME280;63483;47.384;8.860;2023-04-01T03:21:29;93598.66;;;6.09;41.87
74921;BME280;63483;47.384;8.860;2023-04-01T03:23:55;93606.72;;;6.14;41.91
74921;BME280;63483;47.384;8.860;2023-04-01T03:26:20;93607.97;;;5.89;41.83
74921;BME280;63483;47.384;8.860;2023-04-01T03:28:46;93610.19;;;5.92;41.39
74921;BME280;63483;47.384;8.860;2023-04-01T03:31:12;93613.53;;;6.00;41.82
74921;BME280;63483;47.384;8.860;2023-04-01T03:33:37;93615.34;;;6.00;41.36
74921;BME280;63483;47.384;8.860;2023-04-01T03:36:03;93617.50;;;6.11;41.27
74921;BME280;63483;47.384;8.860;2023-04-01T03:38:33;93613.28;;;6.10;41.63
74921;BME280;63483;47.384;8.860;2023-04-01T03:40:59;93620.34;;;6.02;42.92
74921;BME280;63483;47.384;8.860;2023-04-01T03:43:24;93608.84;;;5.58;38.71
74921;BME280;63483;47.384;8.860;2023-04-01T03:45:51;93614.66;;;5.13;38.38
74921;BME280;63483;47.384;8.860;2023-04-01T03:48:17;93613.38;;;5.09;38.58
74921;BME280;63483;47.384;8.860;2023-04-01T03:50:43;93610.56;;;4.88;41.05
74921;BME280;63483;47.384;8.860;2023-04-01T03:53:09;93609.88;;;4.63;41.25
74921;BME280;63483;47.384;8.860;2023-04-01T03:55:38;93596.63;;;4.49;40.82
74921;BME280;63483;47.384;8.860;2023-04-01T03:58:04;93601.66;;;4.42;40.84
74921;BME280;63483;47.384;8.860;2023-04-01T04:00:30;93594.56;;;4.36;40.58
74921;BME280;63483;47.384;8.860;2023-04-01T04:02:56;93608.69;;;4.25;40.73
74921;BME280;63483;47.384;8.860;2023-04-01T04:05:23;93625.06;;;4.18;40.71
74921;BME280;63483;47.384;8.860;2023-04-01T04:07:48;93623.13;;;4.12;39.60
74921;BME280;63483;47.384;8.860;2023-04-01T04:10:14;93613.28;;;3.74;43.60
74921;BME280;63483;47.384;8.860;2023-04-01T04:12:39;93611.31;;;4.01;41.35
74921;BME280;63483;47.384;8.860;2023-04-01T04:15:06;93610.19;;;3.95;39.90
74921;BME280;63483;47.384;8.860;2023-04-01T04:17:31;93621.53;;;3.86;42.97
74921;BME280;63483;47.384;8.860;2023-04-01T04:19:56;93624.78;;;3.88;39.97
74921;BME280;63483;47.384;8.860;2023-04-01T04:22:22;93626.09;;;3.84;41.54
74921;BME280;63483;47.384;8.860;2023-04-01T04:24:47;93620.59;;;3.87;44.64
74921;BME280;63483;47.384;8.860;2023-04-01T04:27:13;93622.44;;;4.26;45.34
74921;BME280;63483;47.384;8.860;2023-04-01T04:29:38;93621.53;;;3.86;44.07
74921;BME280;63483;47.384;8.860;2023-04-01T04:32:03;93616.34;;;4.02;41.32
74921;BME280;63483;47.384;8.860;2023-04-01T04:34:29;93621.19;;;4.05;41.02
74921;BME280;63483;47.384;8.860;2023-04-01T04:36:54;93618.25;;;4.17;42.83
74921;BME280;63483;47.384;8.860;2023-04-01T04:39:19;93622.81;;;4.06;40.53
74921;BME280;63483;47.384;8.860;2023-04-01T04:41:45;93623.16;;;4.03;41.42
74921;BME280;63483;47.384;8.860;2023-04-01T04:44:10;93609.84;;;4.15;44.06
74921;BME280;63483;47.384;8.860;2023-04-01T04:46:35;93616.25;;;4.52;44.20
74921;BME280;63483;47.384;8.860;2023-04-01T04:49:02;93617.66;;;4.63;44.28
74921;BME280;63483;47.384;8.860;2023-04-01T04:51:28;93614.13;;;4.87;43.15
74921;BME280;63483;47.384;8.860;2023-04-01T04:53:53;93619.59;;;5.00;43.32
74921;BME280;63483;47.384;8.860;2023-04-01T04:56:20;93629.59;;;5.11;43.55
74921;BME280;63483;47.384;8.860;2023-04-01T04:58:46;93630.13;;;5.07;44.21
74921;BME280;63483;47.384;8.860;2023-04-01T05:01:13;93635.75;;;5.19;44.60
74921;BME280;63483;47.384;8.860;2023-04-01T05:03:40;93637.28;;;5.28;44.30
74921;BME280;63483;47.384;8.860;2023-04-01T05:06:07;93641.38;;;5.22;44.70
74921;BME280;63483;47.384;8.860;2023-04-01T05:08:32;93637.94;;;4.99;45.31
74921;BME280;63483;47.384;8.860;2023-04-01T05:10:59;93656.28;;;4.97;45.58
74921;BME280;63483;47.384;8.860;2023-04-01T05:13:25;93662.31;;;5.21;44.95
74921;BME280;63483;47.384;8.860;2023-04-01T05:15:50;93663.50;;;5.41;44.58
74921;BME280;63483;47.384;8.860;2023-04-01T05:18:16;93662.19;;;5.45;44.36
74921;BME280;63483;47.384;8.860;2023-04-01T05:20:52;93661.94;;;5.55;44.37
74921;BME280;63483;47.384;8.860;2023-04-01T05:23:18;93659.84;;;5.59;44.48
74921;BME280;63483;47.384;8.860;2023-04-01T05:25:46;93654.97;;;5.56;44.54
74921;BME280;63483;47.384;8.860;2023-04-01T05:28:12;93665.13;;;5.42;44.96
74921;BME280;63483;47.384;8.860;2023-04-01T05:30:39;93655.59;;;5.35;45.03
74921;BME280;63483;47.384;8.860;2023-04-01T05:33:05;93657.53;;;5.41;44.66
74921;BME280;63483;47.384;8.860;2023-04-01T05:35:30;93659.34;;;5.32;45.20
74921;BME280;63483;47.384;8.860;2023-04-01T05:37:56;93654.59;;;5.36;45.54
74921;BME280;63483;47.384;8.860;2023-04-01T05:40:21;93662.81;;;5.24;45.53
74921;BME280;63483;47.384;8.860;2023-04-01T05:42:47;93659.63;;;5.37;45.48
74921;BME280;63483;47.384;8.860;2023-04-01T05:45:12;93660.03;;;5.49;45.35
74921;BME280;63483;47.384;8.860;2023-04-01T05:47:40;93660.38;;;5.46;45.02
74921;BME280;63483;47.384;8.860;2023-04-01T05:50:06;93659.94;;;5.42;45.41
74921;BME280;63483;47.384;8.860;2023-04-01T05:52:31;93659.34;;;5.32;45.40
74921;BME280;63483;47.384;8.860;2023-04-01T05:54:56;93665.06;;;5.27;45.83
74921;BME280;63483;47.384;8.860;2023-04-01T05:57:22;93675.53;;;5.42;45.34
74921;BME280;63483;47.384;8.860;2023-04-01T05:59:47;93671.56;;;5.23;45.92
74921;BME280;63483;47.384;8.860;2023-04-01T06:02:13;93674.53;;;5.12;43.64
74921;BME280;63483;47.384;8.860;2023-04-01T06:04:41;93684.84;;;4.89;42.60
74921;BME280;63483;47.384;8.860;2023-04-01T06:07:17;93678.75;;;4.65;41.60
74921;BME280;63483;47.384;8.860;2023-04-01T06:09:44;93685.47;;;4.43;42.53
74921;BME280;63483;47.384;8.860;2023-04-01T06:12:49;93680.13;;;4.28;43.53
74921;BME280;63483;47.384;8.860;2023-04-01T06:15:25;93674.94;;;4.20;43.83
74921;BME280;63483;47.384;8.860;2023-04-01T06:23:39;93675.47;;;3.99;43.66
74921;BME280;63483;47.384;8.860;2023-04-01T06:45:31;93661.06;;;4.04;44.35
74921;BME280;63483;47.384;8.860;2023-04-01T06:51:08;93663.44;;;4.14;51.46
74921;BME280;63483;47.384;8.860;2023-04-01T06:54:06;93656.81;;;4.12;45.50
74921;BME280;63483;47.384;8.860;2023-04-01T06:56:36;93648.41;;;4.01;46.26
74921;BME280;63483;47.384;8.860;2023-04-01T06:59:05;93647.28;;;3.96;46.94
74921;BME280;63483;47.384;8.860;2023-04-01T07:01:43;93656.00;;;4.11;44.74
74921;BME280;63483;47.384;8.860;2023-04-01T07:04:14;93648.72;;;3.98;44.06
74921;BME280;63483;47.384;8.860;2023-04-01T07:06:53;93649.56;;;3.99;48.40
74921;BME280;63483;47.384;8.860;2023-04-01T07:09:25;93647.91;;;3.89;45.95
74921;BME280;63483;47.384;8.860;2023-04-01T07:11:54;93643.91;;;3.87;43.84
74921;BME280;63483;47.384;8.860;2023-04-01T07:17:00;93645.81;;;4.10;44.20
74921;BME280;63483;47.384;8.860;2023-04-01T07:22:17;93653.28;;;4.69;47.00
74921;BME280;63483;47.384;8.860;2023-04-01T07:24:46;93659.94;;;4.71;47.08
74921;BME280;63483;47.384;8.860;2023-04-01T07:27:13;93651.34;;;5.10;46.44
74921;BME280;63483;47.384;8.860;2023-04-01T07:29:39;93649.78;;;5.01;45.82
74921;BME280;63483;47.384;8.860;2023-04-01T07:38:10;93661.88;;;5.40;45.61
74921;BME280;63483;47.384;8.860;2023-04-01T07:43:45;93672.50;;;5.54;45.63
74921;BME280;63483;47.384;8.860;2023-04-01T07:49:20;93673.44;;;5.61;46.18
74921;BME280;63483;47.384;8.860;2023-04-01T07:52:01;93688.50;;;5.42;46.89
74921;BME280;63483;47.384;8.860;2023-04-01T07:54:50;93691.78;;;5.36;46.97
74921;BME280;63483;47.384;8.860;2023-04-01T07:57:49;93677.63;;;5.39;47.15
74921;BME280;63483;47.384;8.860;2023-04-01T08:00:23;93689.03;;;5.61;47.08
74921;BME280;63483;47.384;8.860;2023-04-01T08:05:57;93688.69;;;5.64;47.32
74921;BME280;63483;47.384;8.860;2023-04-01T08:08:52;93680.50;;;5.75;46.54
74921;BME280;63483;47.384;8.860;2023-04-01T08:11:29;93684.66;;;5.85;46.42
74921;BME280;63483;47.384;8.860;2023-04-01T08:14:37;93684.72;;;5.76;46.33
74921;BME280;63483;47.384;8.860;2023-04-01T08:17:02;93686.03;;;5.95;46.29
74921;BME280;63483;47.384;8.860;2023-04-01T08:20:25;93681.25;;;6.07;46.70
74921;BME280;63483;47.384;8.860;2023-04-01T08:23:07;93675.94;;;6.15;46.07
74921;BME280;63483;47.384;8.860;2023-04-01T08:25:40;93672.38;;;6.16;46.07
74921;BME280;63483;47.384;8.860;2023-04-01T08:30:42;93680.78;;;6.18;45.83
74921;BME280;63483;47.384;8.860;2023-04-01T08:33:19;93684.16;;;6.04;46.33
74921;BME280;63483;47.384;8.860;2023-04-01T08:35:51;93676.44;;;6.19;45.97
74921;BME280;63483;47.384;8.860;2023-04-01T08:38:26;93671.22;;;6.19;46.33
74921;BME280;63483;47.384;8.860;2023-04-01T08:46:17;93672.88;;;5.97;46.60
74921;BME280;63483;47.384;8.860;2023-04-01T08:48:55;93679.56;;;5.91;46.43
74921;BME280;63483;47.384;8.860;2023-04-01T08:52:05;93679.78;;;5.81;46.50
74921;BME280;63483;47.384;8.860;2023-04-01T08:54:46;93685.44;;;6.08;46.75
74921;BME280;63483;47.384;8.860;2023-04-01T09:08:40;93682.63;;;5.95;47.50
74921;BME280;63483;47.384;8.860;2023-04-01T09:22:52;93678.84;;;6.21;46.53
74921;BME280;63483;47.384;8.860;2023-04-01T09:28:14;93684.09;;;6.12;45.07
74921;BME280;63483;47.384;8.860;2023-04-01T09:36:30;93697.03;;;5.20;41.92
74921;BME280;63483;47.384;8.860;2023-04-01T09:41:32;93686.78;;;4.95;45.88
74921;BME280;63483;47.384;8.860;2023-04-01T09:44:25;93686.13;;;4.93;44.60
74921;BME280;63483;47.384;8.860;2023-04-01T09:47:09;93682.94;;;4.74;45.14
74921;BME280;63483;47.384;8.860;2023-04-01T09:53:07;93687.81;;;4.69;44.38
74921;BME280;63483;47.384;8.860;2023-04-01T10:01:40;93697.88;;;4.64;49.83
74921;BME280;63483;47.384;8.860;2023-04-01T10:04:15;93695.28;;;4.64;47.10
74921;BME280;63483;47.384;8.860;2023-04-01T10:43:20;93688.47;;;5.97;47.43
74921;BME280;63483;47.384;8.860;2023-04-01T10:46:01;93671.81;;;6.06;46.96
74921;BME280;63483;47.384;8.860;2023-04-01T11:00:43;93664.84;;;6.22;45.37
74921;BME280;63483;47.384;8.860;2023-04-01T11:13:33;93684.31;;;6.64;44.67
74921;BME280;63483;47.384;8.860;2023-04-01T11:30:02;93681.88;;;7.07;44.25
74921;BME280;63483;47.384;8.860;2023-04-01T11:35:42;93674.75;;;7.16;44.46
74921;BME280;63483;47.384;8.860;2023-04-01T11:44:24;93689.22;;;7.18;44.55
74921;BME280;63483;47.384;8.860;2023-04-01T11:46:55;93691.81;;;7.33;43.42
74921;BME280;63483;47.384;8.860;2023-04-01T11:49:29;93689.84;;;7.20;44.44
74921;BME280;63483;47.384;8.860;2023-04-01T12:08:39;93682.13;;;7.49;43.66
74921;BME280;63483;47.384;8.860;2023-04-01T12:13:53;93695.50;;;7.61;41.98
74921;BME280;63483;47.384;8.860;2023-04-01T12:21:52;93702.78;;;7.29;43.25
74921;BME280;63483;47.384;8.860;2023-04-01T12:27:41;93684.72;;;7.64;42.76
74921;BME280;63483;47.384;8.860;2023-04-01T12:35:55;93681.50;;;7.83;41.65
74921;BME280;63483;47.384;8.860;2023-04-01T12:41:39;93673.94;;;7.67;41.40
74921;BME280;63483;47.384;8.860;2023-04-01T12:55:44;93702.66;;;7.37;45.02
74921;BME280;63483;47.384;8.860;2023-04-01T13:09:53;93696.16;;;7.48;43.70
74921;BME280;63483;47.384;8.860;2023-04-01T13:12:48;93692.88;;;7.39;43.81
74921;BME280;63483;47.384;8.860;2023-04-01T13:15:26;93687.53;;;7.47;43.16
74921;BME280;63483;47.384;8.860;2023-04-01T13:20:48;93677.44;;;7.59;42.59
74921;BME280;63483;47.384;8.860;2023-04-01T13:26:28;93687.97;;;7.66;41.66
74921;BME280;63483;47.384;8.860;2023-04-01T13:29:04;93691.19;;;7.68;40.96
74921;BME280;63483;47.384;8.860;2023-04-01T13:42:37;93699.88;;;7.75;40.83
74921;BME280;63483;47.384;8.860;2023-04-01T13:45:21;93678.09;;;7.83;40.04
74921;BME280;63483;47.384;8.860;2023-04-01T13:50:46;93674.56;;;7.90;40.47
74921;BME280;63483;47.384;8.860;2023-04-01T13:58:55;93683.34;;;8.33;39.86
74921;BME280;63483;47.384;8.860;2023-04-01T14:15:42;93656.88;;;8.36;39.00
74921;BME280;63483;47.384;8.860;2023-04-01T14:18:27;93652.53;;;8.21;39.66
74921;BME280;63483;47.384;8.860;2023-04-01T14:24:04;93653.75;;;8.47;38.66
74921;BME280;63483;47.384;8.860;2023-04-01T14:27:00;93649.66;;;8.38;38.41
74921;BME280;63483;47.384;8.860;2023-04-01T14:32:24;93653.69;;;8.40;39.12
74921;BME280;63483;47.384;8.860;2023-04-01T14:40:40;93640.19;;;8.65;38.91
74921;BME280;63483;47.384;8.860;2023-04-01T14:48:52;93661.97;;;8.51;38.56
74921;BME280;63483;47.384;8.860;2023-04-01T14:51:28;93656.00;;;8.57;38.87
74921;BME280;63483;47.384;8.860;2023-04-01T14:56:42;93667.06;;;8.59;38.88
74921;BME280;63483;47.384;8.860;2023-04-01T14:59:26;93711.50;;;8.44;38.85
74921;BME280;63483;47.384;8.860;2023-04-01T15:02:14;93730.75;;;8.15;41.52
74921;BME280;63483;47.384;8.860;2023-04-01T15:16:20;93693.44;;;6.60;40.32
74921;BME280;63483;47.384;8.860;2023-04-01T15:24:24;93712.56;;;6.29;41.03
74921;BME280;63483;47.384;8.860;2023-04-01T15:29:46;93712.13;;;6.02;43.94
74921;BME280;63483;47.384;8.860;2023-04-01T15:32:31;93716.41;;;5.95;44.50
74921;BME280;63483;47.384;8.860;2023-04-01T15:38:05;93767.09;;;5.91;43.66
74921;BME280;63483;47.384;8.860;2023-04-01T15:40:49;93739.75;;;5.80;47.53
74921;BME280;63483;47.384;8.860;2023-04-01T15:43:44;93725.28;;;5.77;45.73
74921;BME280;63483;47.384;8.860;2023-04-01T15:46:22;93717.09;;;5.89;43.21
74921;BME280;63483;47.384;8.860;2023-04-01T15:49:41;93715.19;;;5.82;43.52
74921;BME280;63483;47.384;8.860;2023-04-01T15:54:54;93697.06;;;5.74;51.71
74921;BME280;63483;47.384;8.860;2023-04-01T15:57:40;93688.09;;;5.54;45.26
74921;BME280;63483;47.384;8.860;2023-04-01T16:00:31;93686.50;;;5.53;44.40
74921;BME280;63483;47.384;8.860;2023-04-01T16:06:24;93689.69;;;5.32;43.26
74921;BME280;63483;47.384;8.860;2023-04-01T16:12:15;93699.09;;;5.01;44.32
74921;BME280;63483;47.384;8.860;2023-04-01T16:20:02;93694.41;;;5.28;43.49
74921;BME280;63483;47.384;8.860;2023-04-01T16:22:58;93697.53;;;5.23;44.59
74921;BME280;63483;47.384;8.860;2023-04-01T16:25:40;93691.38;;;5.47;49.80
74921;BME280;63483;47.384;8.860;2023-04-01T16:31:05;93686.88;;;6.11;47.78
74921;BME280;63483;47.384;8.860;2023-04-01T16:36:30;93685.53;;;6.53;47.38
74921;BME280;63483;47.384;8.860;2023-04-01T16:39:29;93682.31;;;6.66;47.51
74921;BME280;63483;47.384;8.860;2023-04-01T16:44:56;93690.47;;;6.93;47.16
74921;BME280;63483;47.384;8.860;2023-04-01T16:47:30;93696.22;;;7.03;47.33
74921;BME280;63483;47.384;8.860;2023-04-01T16:55:17;93708.44;;;7.17;46.94
74921;BME280;63483;47.384;8.860;2023-04-01T16:57:56;93710.66;;;7.20;47.39
74921;BME280;63483;47.384;8.860;2023-04-01T17:00:26;93710.13;;;7.25;46.50
74921;BME280;63483;47.384;8.860;2023-04-01T17:03:02;93716.34;;;6.94;47.49
74921;BME280;63483;47.384;8.860;2023-04-01T17:05:38;93717.94;;;7.10;46.82
74921;BME280;63483;47.384;8.860;2023-04-01T17:08:20;93731.50;;;7.20;46.67
74921;BME280;63483;47.384;8.860;2023-04-01T17:10:59;93733.13;;;7.21;47.10
74921;BME280;63483;47.384;8.860;2023-04-01T17:13:40;93769.06;;;7.11;48.08
74921;BME280;63483;47.384;8.860;2023-04-01T17:27:52;93754.56;;;6.79;47.60
74921;BME280;63483;47.384;8.860;2023-04-01T17:30:35;93758.09;;;6.86;48.10
74921;BME280;63483;47.384;8.860;2023-04-01T17:57:31;93756.75;;;6.90;45.78
74921;BME280;63483;47.384;8.860;2023-04-01T18:08:25;93760.88;;;6.99;46.33
74921;BME280;63483;47.384;8.860;2023-04-01T18:16:09;93773.44;;;6.96;45.85
74921;BME280;63483;47.384;8.860;2023-04-01T18:21:43;93780.63;;;6.94;45.64
74921;BME280;63483;47.384;8.860;2023-04-01T18:26:42;93780.63;;;6.94;45.54
74921;BME280;63483;47.384;8.860;2023-04-01T18:40:02;93782.66;;;6.83;45.89
74921;BME280;63483;47.384;8.860;2023-04-01T18:47:50;93792.31;;;6.60;43.95
74921;BME280;63483;47.384;8.860;2023-04-01T18:53:37;93788.94;;;5.81;42.10
74921;BME280;63483;47.384;8.860;2023-04-01T18:56:13;93799.06;;;5.68;44.29
74921;BME280;63483;47.384;8.860;2023-04-01T18:59:32;93801.13;;;5.50;42.86
74921;BME280;63483;47.384;8.860;2023-04-01T19:02:17;93809.34;;;5.13;41.12
74921;BME280;63483;47.384;8.860;2023-04-01T19:04:50;93820.09;;;4.86;40.72
74921;BME280;63483;47.384;8.860;2023-04-01T19:15:36;93830.34;;;4.46;43.27
74921;BME280;63483;47.384;8.860;2023-04-01T19:26:09;93828.16;;;4.08;43.31
74921;BME280;63483;47.384;8.860;2023-04-01T19:28:56;93827.53;;;4.06;43.12
74921;BME280;63483;47.384;8.860;2023-04-01T19:31:43;93820.97;;;3.78;42.17
74921;BME280;63483;47.384;8.860;2023-04-01T19:37:08;93836.78;;;3.58;42.41
74921;BME280;63483;47.384;8.860;2023-04-01T19:45:07;93838.44;;;3.33;42.55
74921;BME280;63483;47.384;8.860;2023-04-01T19:50:42;93827.38;;;3.49;43.12
74921;BME280;63483;47.384;8.860;2023-04-01T19:56:04;93834.72;;;3.62;42.61
74921;BME280;63483;47.384;8.860;2023-04-01T19:58:44;93837.47;;;3.60;42.27
74921;BME280;63483;47.384;8.860;2023-04-01T20:01:18;93841.69;;;3.69;42.79
74921;BME280;63483;47.384;8.860;2023-04-01T20:03:54;93847.19;;;3.75;44.50
74921;BME280;63483;47.384;8.860;2023-04-01T20:14:54;93861.78;;;4.76;49.97
74921;BME280;63483;47.384;8.860;2023-04-01T20:17:24;93849.59;;;4.93;48.81
74921;BME280;63483;47.384;8.860;2023-04-01T20:19:59;93859.00;;;5.10;48.93
74921;BME280;63483;47.384;8.860;2023-04-01T20:22:52;93854.44;;;5.29;48.94
74921;BME280;63483;47.384;8.860;2023-04-01T20:25:46;93856.34;;;5.35;49.02
74921;BME280;63483;47.384;8.860;2023-04-01T20:28:21;93856.97;;;5.45;48.54
74921;BME280;63483;47.384;8.860;2023-04-01T20:31:12;93858.25;;;5.50;48.44
74921;BME280;63483;47.384;8.860;2023-04-01T20:34:10;93850.44;;;5.58;47.94
74921;BME280;63483;47.384;8.860;2023-04-01T20:37:06;93849.47;;;5.59;47.65
74921;BME280;63483;47.384;8.860;2023-04-01T20:42:33;93842.63;;;5.66;47.82
74921;BME280;63483;47.384;8.860;2023-04-01T20:45:17;93849.41;;;5.67;47.43
74921;BME280;63483;47.384;8.860;2023-04-01T20:53:15;93861.25;;;5.78;46.95
74921;BME280;63483;47.384;8.860;2023-04-01T20:55:53;93853.28;;;5.79;46.46
74921;BME280;63483;47.384;8.860;2023-04-01T21:07:08;93886.88;;;5.81;46.57
74921;BME280;63483;47.384;8.860;2023-04-01T21:12:30;93882.50;;;5.81;46.05
74921;BME280;63483;47.384;8.860;2023-04-01T21:15:21;93884.75;;;5.85;46.67
74921;BME280;63483;47.384;8.860;2023-04-01T21:20:33;93884.41;;;5.88;46.60
74921;BME280;63483;47.384;8.860;2023-04-01T21:31:18;93885.09;;;5.81;46.60
74921;BME280;63483;47.384;8.860;2023-04-01T21:44:45;93904.84;;;5.91;46.53
74921;BME280;63483;47.384;8.860;2023-04-01T21:53:33;93905.03;;;5.89;46.78
74921;BME280;63483;47.384;8.860;2023-04-01T21:55:56;93909.44;;;5.89;46.58
74921;BME280;63483;47.384;8.860;2023-04-01T22:04:23;93917.22;;;5.89;46.87
74921;BME280;63483;47.384;8.860;2023-04-01T22:07:02;93924.56;;;5.85;46.62
74921;BME280;63483;47.384;8.860;2023-04-01T22:09:35;93920.97;;;5.86;46.86
74921;BME280;63483;47.384;8.860;2023-04-01T22:12:33;93928.13;;;5.84;46.37
74921;BME280;63483;47.384;8.860;2023-04-01T22:15:19;93935.75;;;5.86;46.12
74921;BME280;63483;47.384;8.860;2023-04-01T22:25:42;93932.38;;;5.77;46.07
74921;BME280;63483;47.384;8.860;2023-04-01T22:28:22;93935.59;;;5.79;46.05
74921;BME280;63483;47.384;8.860;2023-04-01T22:30:55;93939.97;;;5.87;46.10
74921;BME280;63483;47.384;8.860;2023-04-01T22:33:41;93932.84;;;5.80;45.88
74921;BME280;63483;47.384;8.860;2023-04-01T22:36:18;93940.28;;;5.92;46.07
74921;BME280;63483;47.384;8.860;2023-04-01T22:39:28;93949.03;;;5.91;46.14
74921;BME280;63483;47.384;8.860;2023-04-01T22:44:52;93941.41;;;5.89;45.77
74921;BME280;63483;47.384;8.860;2023-04-01T22:50:05;93951.97;;;5.96;45.62
74921;BME280;63483;47.384;8.860;2023-04-01T22:52:43;93952.31;;;5.93;45.76